createdAt,value
2023-01-01T00:03:36.092Z,29.77
2023-01-01T00:07:38.144Z,20.38
2023-01-01T00:11:40.056Z,14.15
2023-01-01T00:15:41.897Z,11.63
2023-01-01T00:19:43.847Z,10.52
2023-01-01T00:23:45.559Z,10.60
2023-01-01T00:27:47.637Z,14.13
2023-01-01T00:31:49.424Z,7.70
2023-01-01T00:35:51.365Z,6.85
2023-01-01T00:39:53.164Z,7.28
2023-01-01T00:43:55.167Z,7.60
2023-01-01T00:47:56.893Z,7.18
2023-01-01T00:51:59.032Z,7.53
2023-01-01T00:56:00.781Z,6.45
2023-01-01T01:00:02.987Z,12.75
2023-01-01T01:04:05.052Z,14.77
2023-01-01T01:08:07.022Z,7.65
2023-01-01T01:12:17.604Z,7.18
2023-01-01T01:16:29.684Z,7.95
2023-01-01T01:20:31.489Z,7.88
2023-01-01T01:24:33.680Z,6.93
2023-01-01T01:28:35.571Z,6.97
2023-01-01T01:32:37.509Z,6.28
2023-01-01T01:36:39.456Z,7.75
2023-01-01T01:40:43.197Z,7.13
2023-01-01T01:44:58.985Z,6.97
2023-01-01T01:49:05.704Z,7.60
2023-01-01T01:53:13.180Z,7.63
2023-01-01T01:57:15.276Z,7.70
2023-01-01T02:01:17.670Z,7.03
2023-01-01T02:05:20.625Z,7.72
2023-01-01T02:09:23.206Z,7.10
2023-01-01T02:13:24.944Z,7.97
2023-01-01T02:17:40.164Z,8.45
2023-01-01T02:21:55.397Z,7.53
2023-01-01T02:26:22.053Z,8.25
2023-01-01T02:30:24.005Z,7.15
2023-01-01T02:34:32.023Z,7.95
2023-01-01T02:38:39.504Z,7.97
2023-01-01T02:42:42.088Z,7.20
2023-01-01T02:46:43.808Z,7.13
2023-01-01T02:50:46.849Z,7.07
2023-01-01T02:55:01.920Z,6.60
2023-01-01T02:59:38.442Z,6.25
2023-01-01T03:03:54.022Z,6.40
2023-01-01T03:08:15.863Z,6.18
2023-01-01T03:13:03.728Z,7.20
2023-01-01T03:17:23.677Z,6.82
2023-01-01T03:21:25.683Z,5.30
2023-01-01T03:25:36.424Z,6.55
2023-01-01T03:29:41.685Z,5.68
2023-01-01T03:33:49.463Z,6.60
2023-01-01T03:37:55.086Z,6.28
2023-01-01T03:42:18.962Z,4.97
2023-01-01T03:46:26.533Z,6.05
2023-01-01T03:50:58.460Z,5.50
2023-01-01T03:55:03.395Z,4.50
2023-01-01T03:59:16.115Z,5.40
2023-01-01T04:03:24.255Z,5.65
2023-01-01T04:07:26.152Z,5.47
2023-01-01T04:11:50.050Z,5.20
2023-01-01T04:15:52.585Z,4.95
2023-01-01T04:19:55.404Z,5.75
2023-01-01T04:23:57.160Z,5.22
2023-01-01T04:27:59.559Z,4.95
2023-01-01T04:32:01.214Z,5.40
2023-01-01T04:36:08.805Z,5.78
2023-01-01T04:40:12.517Z,4.50
2023-01-01T04:44:14.570Z,4.97
2023-01-01T04:48:16.204Z,5.10
2023-01-01T04:52:18.217Z,5.25
2023-01-01T04:56:21.704Z,4.65
2023-01-01T05:00:23.840Z,5.20
2023-01-01T05:04:25.604Z,4.78
2023-01-01T05:08:35.611Z,4.32
2023-01-01T05:12:37.486Z,4.20
2023-01-01T05:16:40.472Z,4.15
2023-01-01T05:20:42.363Z,4.47
2023-01-01T05:24:44.336Z,3.72
2023-01-01T05:28:47.455Z,3.53
2023-01-01T05:32:49.386Z,3.67
2023-01-01T05:36:51.085Z,3.72
2023-01-01T05:40:53.102Z,4.63
2023-01-01T05:44:54.791Z,3.42
2023-01-01T05:48:56.891Z,3.50
2023-01-01T05:52:58.623Z,3.60
2023-01-01T05:57:00.579Z,4.20
2023-01-01T06:01:10.682Z,4.13
2023-01-01T06:05:12.687Z,3.55
2023-01-01T06:09:14.732Z,3.97
2023-01-01T06:13:17.507Z,3.92
2023-01-01T06:17:19.712Z,3.67
2023-01-01T06:21:24.304Z,4.25
2023-01-01T06:25:26.391Z,4.38
2023-01-01T06:29:28.197Z,4.40
2023-01-01T06:33:30.819Z,4.35
2023-01-01T06:37:32.545Z,4.32
2023-01-01T06:41:34.916Z,4.10
2023-01-01T06:45:36.632Z,4.25
2023-01-01T06:49:38.565Z,3.88
2023-01-01T06:53:40.792Z,4.30
2023-01-01T06:57:42.503Z,4.40
2023-01-01T07:01:45.091Z,3.50
2023-01-01T07:05:47.126Z,4.13
2023-01-01T07:09:49.062Z,4.18
2023-01-01T07:13:51.006Z,4.03
2023-01-01T07:17:52.944Z,3.78
2023-01-01T07:21:55.481Z,4.13
2023-01-01T07:25:57.597Z,3.70
2023-01-01T07:29:59.322Z,4.53
2023-01-01T07:34:01.416Z,3.38
2023-01-01T07:38:03.133Z,4.32
2023-01-01T07:42:10.815Z,4.88
2023-01-01T07:46:16.568Z,4.32
2023-01-01T07:50:19.217Z,4.47
2023-01-01T07:54:20.932Z,4.70
2023-01-01T07:58:23.023Z,3.65
2023-01-01T08:02:24.816Z,3.40
2023-01-01T08:06:26.913Z,4.45
2023-01-01T08:10:28.877Z,3.97
2023-01-01T08:14:30.797Z,3.30
2023-01-01T08:18:32.546Z,4.15
2023-01-01T08:22:34.580Z,4.22
2023-01-01T08:26:36.935Z,3.63
2023-01-01T08:30:38.938Z,4.22
2023-01-01T08:34:40.843Z,3.40
2023-01-01T08:38:43.747Z,4.53
2023-01-01T08:42:45.599Z,4.28
2023-01-01T08:46:47.710Z,3.42
2023-01-01T08:50:56.165Z,3.75
2023-01-01T08:54:58.207Z,3.92
2023-01-01T08:59:04.141Z,4.03
2023-01-01T09:03:06.571Z,3.85
2023-01-01T09:07:08.455Z,4.50
2023-01-01T09:11:24.940Z,3.28
2023-01-01T09:15:26.578Z,3.95
2023-01-01T09:19:28.808Z,4.75
2023-01-01T09:23:30.519Z,4.30
2023-01-01T09:27:32.539Z,3.88
2023-01-01T09:31:34.356Z,3.30
2023-01-01T09:35:38.512Z,3.80
2023-01-01T09:39:40.218Z,4.15
2023-01-01T09:43:42.231Z,3.78
2023-01-01T09:47:46.724Z,3.42
2023-01-01T09:51:57.872Z,3.55
2023-01-01T09:56:02.669Z,3.50
2023-01-01T10:00:20.340Z,3.55
2023-01-01T10:04:28.659Z,5.20
2023-01-01T10:08:50.500Z,4.30
2023-01-01T10:13:16.024Z,3.95
2023-01-01T10:17:20.927Z,4.20
2023-01-01T10:21:45.092Z,3.92
2023-01-01T10:25:49.107Z,3.75
2023-01-01T10:29:55.470Z,4.20
2023-01-01T10:34:22.119Z,4.65
2023-01-01T10:38:26.099Z,3.70
2023-01-01T10:42:28.095Z,4.40
2023-01-01T10:46:32.537Z,3.28
2023-01-01T10:50:51.005Z,4.25
2023-01-01T10:54:53.195Z,4.25
2023-01-01T10:58:58.615Z,4.00
2023-01-01T11:03:21.759Z,3.83
2023-01-01T11:07:30.296Z,4.85
2023-01-01T11:11:45.350Z,3.70
2023-01-01T11:15:47.685Z,3.95
2023-01-01T11:19:52.792Z,3.95
2023-01-01T11:24:16.649Z,3.40
2023-01-01T11:28:21.377Z,3.53
2023-01-01T11:32:36.068Z,4.47
2023-01-01T11:36:37.892Z,3.83
2023-01-01T11:40:47.017Z,3.75
2023-01-01T11:48:54.757Z,4.35
2023-01-01T11:52:59.009Z,4.20
2023-01-01T11:57:23.659Z,4.82
2023-01-01T12:01:43.057Z,4.05
2023-01-01T12:05:59.286Z,3.95
2023-01-01T12:10:16.117Z,3.50
2023-01-01T12:14:39.413Z,3.55
2023-01-01T12:19:18.809Z,4.38
2023-01-01T12:23:20.823Z,4.25
2023-01-01T12:27:31.874Z,3.85
2023-01-01T12:31:48.664Z,4.70
2023-01-01T12:35:57.349Z,4.38
2023-01-01T12:40:25.057Z,3.80
2023-01-01T12:44:37.119Z,3.67
2023-01-01T12:48:58.617Z,3.83
2023-01-01T12:53:18.269Z,3.85
2023-01-01T12:57:51.645Z,4.28
2023-01-01T13:02:00.685Z,3.40
2023-01-01T13:06:04.267Z,3.70
2023-01-01T13:10:23.358Z,3.60
2023-01-01T13:14:25.004Z,3.47
2023-01-01T13:18:35.119Z,4.97
2023-01-01T13:22:39.095Z,4.07
2023-01-01T13:26:41.724Z,4.13
2023-01-01T13:30:43.364Z,4.30
2023-01-01T13:35:02.699Z,3.45
2023-01-01T13:39:04.425Z,4.07
2023-01-01T13:43:18.549Z,3.85
2023-01-01T13:47:44.975Z,4.32
2023-01-01T13:52:37.572Z,3.80
2023-01-01T13:56:48.619Z,4.82
2023-01-01T14:01:27.561Z,4.80
2023-01-01T14:05:34.838Z,4.55
2023-01-01T14:09:36.674Z,4.22
2023-01-01T14:13:40.540Z,4.45
2023-01-01T14:17:44.059Z,4.20
2023-01-01T14:21:46.474Z,4.15
2023-01-01T14:25:48.415Z,4.20
2023-01-01T14:29:51.437Z,4.93
2023-01-01T14:33:53.616Z,7.97
2023-01-01T14:37:56.404Z,35.35
2023-01-01T14:42:16.780Z,27.02
2023-01-01T14:46:25.059Z,8.00
2023-01-01T14:50:29.862Z,5.88
2023-01-01T14:54:38.047Z,7.93
2023-01-01T14:58:40.612Z,7.43
2023-01-01T15:02:42.730Z,5.03
2023-01-01T15:06:44.677Z,6.70
2023-01-01T15:10:47.379Z,5.20
2023-01-01T15:14:51.445Z,5.32
2023-01-01T15:18:57.044Z,6.25
2023-01-01T15:23:03.514Z,5.53
2023-01-01T15:27:36.860Z,5.60
2023-01-01T15:31:46.733Z,5.40
2023-01-01T15:35:50.642Z,5.35
2023-01-01T15:40:03.949Z,6.78
2023-01-01T15:44:35.175Z,6.18
2023-01-01T15:48:50.271Z,8.80
2023-01-01T15:53:01.264Z,8.43
2023-01-01T15:57:03.633Z,10.63
2023-01-01T16:01:08.876Z,7.15
2023-01-01T16:05:16.430Z,9.10
2023-01-01T16:09:20.003Z,8.48
2023-01-01T16:13:22.043Z,8.55
2023-01-01T16:17:23.712Z,5.40
2023-01-01T16:21:31.820Z,6.90
2023-01-01T16:25:33.461Z,5.82
2023-01-01T16:29:35.711Z,4.78
2023-01-01T16:33:38.134Z,18.95
2023-01-01T16:37:41.026Z,12.57
2023-01-01T16:41:44.634Z,9.60
2023-01-01T16:45:47.935Z,12.82
2023-01-01T16:49:49.603Z,12.75
2023-01-01T16:53:51.585Z,7.82
2023-01-01T16:58:07.383Z,12.48
2023-01-01T17:02:15.337Z,6.20
2023-01-01T17:06:17.452Z,10.02
2023-01-01T17:10:19.427Z,7.53
2023-01-01T17:14:21.275Z,6.25
2023-01-01T17:18:39.545Z,10.88
2023-01-01T17:22:45.221Z,11.50
2023-01-01T17:26:51.989Z,6.82
2023-01-01T17:31:02.322Z,9.80
2023-01-01T17:35:05.844Z,6.13
2023-01-01T17:39:13.871Z,7.15
2023-01-01T17:43:15.553Z,9.75
2023-01-01T17:47:17.678Z,13.52
2023-01-01T17:51:23.021Z,13.85
2023-01-01T17:55:25.119Z,14.68
2023-01-01T17:59:27.179Z,9.95
2023-01-01T18:03:28.891Z,8.48
2023-01-01T18:07:31.169Z,8.80
2023-01-01T18:11:34.003Z,8.10
2023-01-01T18:15:37.324Z,7.20
2023-01-01T18:19:40.952Z,9.60
2023-01-01T18:23:43.018Z,9.82
2023-01-01T18:27:44.731Z,17.42
2023-01-01T18:31:46.790Z,12.45
2023-01-01T18:35:48.536Z,11.27
2023-01-01T18:39:50.528Z,15.88
2023-01-01T18:43:52.160Z,13.68
2023-01-01T18:47:55.071Z,10.25
2023-01-01T18:52:05.458Z,11.88
2023-01-01T18:56:14.751Z,10.32
2023-01-01T19:00:24.255Z,9.82
2023-01-01T19:04:26.042Z,11.38
2023-01-01T19:08:29.836Z,17.40
2023-01-01T19:12:32.874Z,16.05
2023-01-01T19:16:34.987Z,10.75
2023-01-01T19:20:36.819Z,12.60
2023-01-01T19:24:42.984Z,17.13
2023-01-01T19:28:56.845Z,16.80
2023-01-01T19:32:58.783Z,24.00
2023-01-01T19:37:00.542Z,23.83
2023-01-01T19:41:02.742Z,12.77
2023-01-01T19:45:07.025Z,33.03
2023-01-01T19:49:08.984Z,35.63
2023-01-01T19:53:10.839Z,28.35
2023-01-01T19:57:14.048Z,23.38
2023-01-01T20:01:16.611Z,11.55
2023-01-01T20:05:18.419Z,12.60
2023-01-01T20:09:20.456Z,16.08
2023-01-01T20:13:23.008Z,30.77
2023-01-01T20:17:25.111Z,29.23
2023-01-01T20:21:45.481Z,40.10
2023-01-01T20:25:47.612Z,18.95
2023-01-01T20:29:49.612Z,18.90
2023-01-01T20:33:51.807Z,15.55
2023-01-01T20:37:53.499Z,14.50
2023-01-01T20:41:55.577Z,15.55
2023-01-01T20:45:57.343Z,11.88
2023-01-01T20:49:59.649Z,15.63
2023-01-01T20:54:01.660Z,14.35
2023-01-01T20:58:04.956Z,14.30
2023-01-01T21:02:11.726Z,13.23
2023-01-01T21:06:17.119Z,12.40
2023-01-01T21:10:22.079Z,11.70
2023-01-01T21:14:25.369Z,13.38
2023-01-01T21:18:29.790Z,15.15
2023-01-01T21:22:32.401Z,14.90
2023-01-01T21:26:37.694Z,17.00
2023-01-01T21:30:51.142Z,13.43
2023-01-01T21:34:55.281Z,13.02
2023-01-01T21:38:57.533Z,12.65
2023-01-01T21:43:06.753Z,13.32
2023-01-01T21:47:22.409Z,12.60
2023-01-01T21:51:33.411Z,12.20
2023-01-01T21:55:54.151Z,15.65
2023-01-01T21:59:56.731Z,14.30
2023-01-01T22:04:02.540Z,14.20
2023-01-01T22:08:24.870Z,14.32
2023-01-01T22:12:29.627Z,13.20
2023-01-01T22:16:31.417Z,14.40
2023-01-01T22:20:37.155Z,15.10
2023-01-01T22:24:38.858Z,12.88
2023-01-01T22:28:44.077Z,12.60
2023-01-01T22:32:50.457Z,12.93
2023-01-01T22:36:53.549Z,12.77
2023-01-01T22:40:56.234Z,12.98
2023-01-01T22:44:59.339Z,14.13
2023-01-01T22:49:11.045Z,14.60
2023-01-01T22:53:13.011Z,12.70
2023-01-01T22:57:14.717Z,12.50
2023-01-01T23:01:16.782Z,11.90
2023-01-01T23:05:18.610Z,13.23
2023-01-01T23:09:21.041Z,12.75
2023-01-01T23:13:41.404Z,12.45
2023-01-01T23:17:43.422Z,12.27
2023-01-01T23:21:45.548Z,13.05
2023-01-01T23:25:47.467Z,12.73
2023-01-01T23:29:51.722Z,12.55
2023-01-01T23:33:58.423Z,13.35
2023-01-01T23:38:01.952Z,12.57
2023-01-01T23:42:04.152Z,12.82
2023-01-01T23:46:05.909Z,13.73
2023-01-01T23:50:08.559Z,13.25
2023-01-01T23:54:10.495Z,13.60
2023-01-01T23:58:12.276Z,12.65
